createdAt,value
2023-01-10T00:04:04.036Z,5.55
2023-01-10T00:09:05.728Z,5.54
2023-01-10T00:14:07.389Z,5.47
2023-01-10T00:19:10.469Z,5.43
2023-01-10T00:24:22.202Z,5.39
2023-01-10T00:29:28.945Z,5.39
2023-01-10T00:34:32.696Z,5.47
2023-01-10T00:39:34.373Z,5.52
2023-01-10T00:44:36.036Z,5.53
2023-01-10T00:49:37.699Z,5.54
2023-01-10T00:54:39.388Z,5.52
2023-01-10T00:59:41.063Z,5.54
2023-01-10T01:04:42.754Z,5.48
2023-01-10T01:10:03.124Z,5.48
2023-01-10T01:15:05.477Z,5.50
2023-01-10T01:20:08.185Z,5.42
2023-01-10T01:25:10.082Z,5.42
2023-01-10T01:30:12.578Z,5.41
2023-01-10T01:35:15.719Z,5.44
2023-01-10T01:40:20.807Z,5.45
2023-01-10T01:45:22.418Z,5.50
2023-01-10T01:50:34.518Z,5.55
2023-01-10T01:55:38.567Z,5.58
2023-01-10T02:00:40.502Z,5.59
2023-01-10T02:05:43.839Z,5.64
2023-01-10T02:10:54.877Z,5.64
2023-01-10T02:15:56.558Z,5.68
2023-01-10T02:21:14.023Z,5.65
2023-01-10T02:26:33.994Z,5.64
2023-01-10T02:31:51.824Z,5.61
2023-01-10T02:37:05.728Z,5.59
2023-01-10T02:42:10.625Z,5.58
2023-01-10T02:47:13.970Z,5.62
2023-01-10T02:52:35.958Z,5.60
2023-01-10T02:57:58.514Z,5.52
2023-01-10T03:03:18.780Z,5.64
2023-01-10T03:08:34.958Z,5.58
2023-01-10T03:13:39.492Z,5.59
2023-01-10T03:18:48.107Z,5.58
2023-01-10T03:23:54.000Z,5.48
2023-01-10T03:29:02.017Z,5.41
2023-01-10T03:34:03.760Z,5.37
2023-01-10T03:39:32.828Z,5.45
2023-01-10T03:44:51.807Z,5.46
2023-01-10T03:50:06.487Z,5.47
2023-01-10T03:55:12.650Z,5.44
2023-01-10T04:00:16.492Z,5.41
2023-01-10T04:05:18.208Z,5.44
2023-01-10T04:10:21.112Z,5.46
2023-01-10T04:15:22.714Z,5.48
2023-01-10T04:20:27.864Z,5.50
2023-01-10T04:25:29.603Z,5.48
2023-01-10T04:30:31.264Z,5.46
2023-01-10T04:35:32.926Z,5.51
2023-01-10T04:40:34.608Z,5.51
2023-01-10T04:45:36.446Z,5.50
2023-01-10T04:50:38.418Z,5.51
2023-01-10T04:55:40.108Z,5.50
2023-01-10T05:00:42.060Z,5.46
2023-01-10T05:05:43.828Z,5.43
2023-01-10T05:10:45.516Z,5.43
2023-01-10T05:15:47.139Z,5.43
2023-01-10T05:20:48.824Z,5.44
2023-01-10T05:25:50.537Z,5.45
2023-01-10T05:30:52.479Z,5.42
2023-01-10T05:35:54.126Z,5.44
2023-01-10T05:40:59.020Z,5.36
2023-01-10T05:46:00.929Z,5.37
2023-01-10T05:51:03.719Z,5.38
2023-01-10T05:56:07.642Z,5.38
2023-01-10T06:01:10.127Z,5.38
2023-01-10T06:06:12.299Z,5.39
2023-01-10T06:11:13.989Z,5.50
2023-01-10T06:16:15.662Z,5.50
2023-01-10T06:21:17.577Z,5.46
2023-01-10T06:26:19.391Z,5.40
2023-01-10T06:31:22.748Z,5.32
2023-01-10T06:36:24.554Z,5.27
2023-01-10T06:41:26.379Z,5.27
2023-01-10T06:46:28.084Z,5.24
2023-01-10T06:51:29.823Z,5.24
2023-01-10T06:56:31.610Z,5.25
2023-01-10T07:01:33.462Z,5.24
2023-01-10T07:06:37.467Z,5.29
2023-01-10T07:11:39.198Z,5.24
2023-01-10T07:16:40.872Z,5.26
2023-01-10T07:21:42.623Z,5.29
2023-01-10T07:26:44.289Z,5.32
2023-01-10T07:31:45.968Z,5.31
2023-01-10T07:36:47.787Z,5.24
2023-01-10T07:41:50.272Z,5.27
2023-01-10T07:46:51.871Z,5.30
2023-01-10T07:51:53.535Z,5.32
2023-01-10T07:56:55.297Z,5.37
2023-01-10T08:01:56.953Z,5.35
2023-01-10T08:06:58.804Z,5.40
2023-01-10T08:12:00.493Z,5.45
2023-01-10T08:17:02.138Z,5.48
2023-01-10T08:22:03.978Z,5.53
2023-01-10T08:27:05.846Z,5.60
2023-01-10T08:32:07.922Z,5.63
2023-01-10T08:37:13.885Z,5.61
2023-01-10T08:42:16.910Z,5.59
2023-01-10T08:47:18.602Z,5.59
2023-01-10T08:52:20.843Z,5.64
2023-01-10T08:57:22.534Z,5.66
2023-01-10T09:02:24.338Z,5.69
2023-01-10T09:07:26.132Z,5.74
2023-01-10T09:12:47.179Z,5.76
2023-01-10T09:17:50.018Z,5.84
2023-01-10T09:22:51.915Z,5.86
2023-01-10T09:27:58.950Z,5.82
2023-01-10T09:33:01.091Z,5.88
2023-01-10T09:38:03.811Z,5.88
2023-01-10T09:43:37.900Z,5.94
2023-01-10T09:49:15.239Z,5.93
2023-01-10T09:54:31.608Z,5.99
2023-01-10T09:59:38.562Z,5.92
2023-01-10T10:04:41.449Z,5.93
2023-01-10T10:09:43.291Z,5.90
2023-01-10T10:15:08.184Z,5.91
2023-01-10T10:20:35.507Z,5.75
2023-01-10T10:26:05.758Z,5.72
2023-01-10T10:31:38.838Z,5.71
2023-01-10T10:36:50.724Z,5.81
2023-01-10T10:41:55.922Z,5.85
2023-01-10T10:46:59.581Z,5.97
2023-01-10T10:52:03.792Z,6.01
2023-01-10T10:57:05.534Z,6.11
2023-01-10T11:02:23.177Z,6.09
2023-01-10T11:07:28.272Z,6.02
2023-01-10T11:12:35.239Z,5.98
2023-01-10T11:17:41.072Z,5.99
2023-01-10T11:22:55.354Z,6.04
2023-01-10T11:28:00.973Z,6.10
2023-01-10T11:33:07.733Z,6.06
2023-01-10T11:38:22.058Z,6.18
2023-01-10T11:43:36.442Z,6.23
2023-01-10T11:49:05.730Z,6.30
2023-01-10T11:54:17.441Z,6.29
2023-01-10T11:59:19.392Z,6.47
2023-01-10T12:04:23.059Z,6.56
2023-01-10T12:09:42.974Z,6.60
2023-01-10T12:14:46.084Z,6.62
2023-01-10T12:19:48.493Z,6.69
2023-01-10T12:24:52.357Z,6.72
2023-01-10T12:30:11.708Z,6.74
2023-01-10T12:35:20.781Z,6.76
2023-01-10T12:40:47.604Z,6.81
2023-01-10T12:45:57.499Z,6.84
2023-01-10T12:51:05.167Z,6.99
2023-01-10T12:56:13.227Z,6.94
2023-01-10T13:01:18.044Z,6.85
2023-01-10T13:06:35.082Z,6.94
2023-01-10T13:11:50.633Z,6.90
2023-01-10T13:17:04.712Z,6.72
2023-01-10T13:22:21.869Z,6.64
2023-01-10T13:27:32.661Z,6.58
2023-01-10T13:32:36.415Z,6.57
2023-01-10T13:37:41.442Z,6.64
2023-01-10T13:43:18.661Z,6.66
2023-01-10T13:48:26.889Z,6.76
2023-01-10T13:53:28.674Z,6.70
2023-01-10T13:58:59.953Z,6.68
2023-01-10T14:04:02.059Z,6.67
2023-01-10T14:09:12.493Z,6.69
2023-01-10T14:14:22.120Z,6.73
2023-01-10T14:19:29.000Z,6.68
2023-01-10T14:24:41.540Z,6.69
2023-01-10T14:29:51.302Z,6.60
2023-01-10T14:34:53.054Z,6.61
2023-01-10T14:39:56.157Z,6.65
2023-01-10T14:45:19.587Z,6.66
2023-01-10T14:50:32.657Z,6.66
2023-01-10T14:55:34.687Z,6.69
2023-01-10T15:00:36.738Z,6.66
2023-01-10T15:05:46.061Z,6.62
2023-01-10T15:10:51.917Z,6.59
2023-01-10T15:15:54.445Z,6.63
2023-01-10T15:20:57.365Z,6.68
2023-01-10T15:26:03.349Z,6.66
2023-01-10T15:31:06.658Z,6.62
2023-01-10T15:36:14.002Z,6.60
2023-01-10T15:41:19.615Z,6.60
2023-01-10T15:46:24.397Z,6.62
2023-01-10T15:51:34.605Z,6.71
2023-01-10T15:56:46.690Z,6.78
2023-01-10T16:02:17.659Z,6.79
2023-01-10T16:07:43.628Z,6.86
2023-01-10T16:13:04.041Z,6.95
2023-01-10T16:18:05.998Z,7.00
2023-01-10T16:23:15.933Z,7.03
2023-01-10T16:28:20.243Z,7.04
2023-01-10T16:33:27.512Z,6.99
2023-01-10T16:38:29.600Z,6.91
2023-01-10T16:43:31.317Z,6.81
2023-01-10T16:48:33.487Z,6.77
2023-01-10T16:53:35.217Z,6.79
2023-01-10T16:58:36.901Z,6.75
2023-01-10T17:03:39.145Z,6.73
2023-01-10T17:08:41.383Z,6.67
2023-01-10T17:13:45.278Z,6.59
2023-01-10T17:18:47.645Z,6.46
2023-01-10T17:23:50.527Z,6.31
2023-01-10T17:28:52.142Z,6.16
2023-01-10T17:33:53.838Z,5.92
2023-01-10T17:38:59.609Z,5.80
2023-01-10T17:44:01.648Z,5.69
2023-01-10T17:49:03.560Z,5.62
2023-01-10T17:54:05.430Z,5.59
2023-01-10T17:59:07.461Z,5.57
2023-01-10T18:04:09.264Z,5.54
2023-01-10T18:09:10.995Z,5.49
2023-01-10T18:14:31.247Z,5.42
2023-01-10T18:19:33.522Z,5.42
2023-01-10T18:24:35.231Z,5.35
2023-01-10T18:29:36.855Z,5.16
2023-01-10T18:34:38.547Z,5.13
2023-01-10T18:39:40.635Z,5.15
2023-01-10T18:44:42.319Z,5.16
2023-01-10T18:49:44.103Z,5.13
2023-01-10T18:54:47.470Z,5.15
2023-01-10T18:59:49.383Z,5.12
2023-01-10T19:04:51.502Z,5.11
2023-01-10T19:09:53.223Z,5.10
2023-01-10T19:14:56.891Z,4.94
2023-01-10T19:19:58.802Z,4.79
2023-01-10T19:25:00.476Z,4.69
2023-01-10T19:30:02.096Z,4.64
2023-01-10T19:35:07.836Z,4.68
2023-01-10T19:40:10.152Z,4.67
2023-01-10T19:45:11.998Z,4.61
2023-01-10T19:50:13.771Z,4.60
2023-01-10T19:55:16.027Z,4.66
2023-01-10T20:00:18.242Z,4.61
2023-01-10T20:05:20.163Z,4.60
2023-01-10T20:10:22.068Z,4.63
2023-01-10T20:15:23.998Z,4.59
2023-01-10T20:20:25.734Z,4.59
2023-01-10T20:25:27.929Z,4.51
2023-01-10T20:30:29.552Z,4.52
2023-01-10T20:35:31.437Z,4.59
2023-01-10T20:40:33.329Z,4.58
2023-01-10T20:45:35.218Z,4.57
2023-01-10T20:50:37.077Z,4.49
2023-01-10T20:55:38.811Z,4.43
2023-01-10T21:00:40.482Z,4.42
2023-01-10T21:05:48.839Z,4.41
2023-01-10T21:10:51.499Z,4.46
2023-01-10T21:15:57.761Z,4.51
2023-01-10T21:21:00.077Z,4.51
2023-01-10T21:26:07.096Z,4.54
2023-01-10T21:31:10.499Z,4.55
2023-01-10T21:36:13.485Z,4.54
2023-01-10T21:41:36.526Z,4.51
2023-01-10T21:46:38.489Z,4.54
2023-01-10T21:51:40.280Z,4.52
2023-01-10T21:56:42.080Z,4.53
2023-01-10T22:01:44.820Z,4.54
2023-01-10T22:06:46.580Z,4.54
2023-01-10T22:11:48.304Z,4.52
2023-01-10T22:16:49.964Z,4.54
2023-01-10T22:21:51.687Z,4.56
2023-01-10T22:26:54.847Z,4.58
2023-01-10T22:31:56.838Z,4.61
2023-01-10T22:36:59.160Z,4.64
2023-01-10T22:42:00.875Z,4.68
2023-01-10T22:47:02.686Z,4.70
2023-01-10T22:52:08.296Z,4.72
2023-01-10T22:57:09.979Z,4.72
2023-01-10T23:02:11.785Z,4.72
2023-01-10T23:07:13.809Z,4.75
2023-01-10T23:12:15.515Z,4.82
2023-01-10T23:17:17.192Z,4.89
2023-01-10T23:22:19.306Z,4.89
2023-01-10T23:27:21.224Z,4.88
2023-01-10T23:32:25.772Z,4.91
2023-01-10T23:37:27.877Z,4.96
2023-01-10T23:42:29.520Z,5.03
2023-01-10T23:47:31.808Z,5.13
2023-01-10T23:52:33.547Z,5.15
2023-01-10T23:57:35.265Z,5.20
